createdAt,value
2023-03-11T00:00:38.101Z,22.10
2023-03-11T00:03:05.918Z,23.83
2023-03-11T00:05:34.978Z,21.60
2023-03-11T00:08:02.271Z,22.03
2023-03-11T00:10:32.272Z,22.50
2023-03-11T00:13:00.111Z,20.13
2023-03-11T00:15:28.335Z,23.08
2023-03-11T00:17:55.280Z,20.83
2023-03-11T00:20:29.360Z,21.30
2023-03-11T00:22:56.648Z,21.30
2023-03-11T00:25:25.311Z,21.02
2023-03-11T00:27:52.041Z,22.52
2023-03-11T00:30:19.790Z,24.20
2023-03-11T00:32:49.195Z,25.93
2023-03-11T00:35:19.265Z,23.00
2023-03-11T00:37:47.338Z,24.20
2023-03-11T00:40:17.106Z,25.13
2023-03-11T00:42:44.101Z,24.23
2023-03-11T00:45:11.579Z,24.33
2023-03-11T00:47:38.666Z,24.33
2023-03-11T00:50:06.768Z,23.13
2023-03-11T00:52:33.422Z,26.75
2023-03-11T00:55:00.186Z,24.38
2023-03-11T00:57:29.128Z,25.50
2023-03-11T00:59:56.049Z,22.50
2023-03-11T01:02:23.042Z,25.17
2023-03-11T01:04:54.395Z,24.25
2023-03-11T01:07:21.700Z,24.92
2023-03-11T01:09:48.493Z,22.13
2023-03-11T01:12:15.056Z,21.95
2023-03-11T01:14:41.621Z,19.38
2023-03-11T01:17:08.152Z,18.52
2023-03-11T01:19:34.746Z,16.80
2023-03-11T01:22:01.338Z,16.17
2023-03-11T01:24:27.904Z,13.75
2023-03-11T01:26:54.489Z,12.32
2023-03-11T01:29:21.058Z,11.48
2023-03-11T01:31:47.746Z,11.10
2023-03-11T01:34:14.297Z,9.70
2023-03-11T01:36:40.885Z,10.27
2023-03-11T01:39:07.478Z,9.10
2023-03-11T01:41:34.364Z,8.50
2023-03-11T01:44:01.138Z,7.68
2023-03-11T01:46:31.599Z,6.23
2023-03-11T01:49:00.967Z,7.22
2023-03-11T01:51:32.715Z,7.45
2023-03-11T01:54:07.847Z,7.97
2023-03-11T01:56:35.424Z,5.93
2023-03-11T01:59:02.365Z,4.50
2023-03-11T02:01:29.575Z,5.35
2023-03-11T02:03:57.760Z,5.20
2023-03-11T02:06:25.734Z,5.43
2023-03-11T02:08:52.440Z,4.57
2023-03-11T02:11:29.080Z,7.00
2023-03-11T02:14:00.555Z,5.65
2023-03-11T02:16:27.818Z,5.10
2023-03-11T02:18:54.652Z,5.65
2023-03-11T02:21:23.528Z,5.57
2023-03-11T02:24:15.308Z,5.90
2023-03-11T02:27:11.820Z,5.28
2023-03-11T02:29:39.191Z,5.88
2023-03-11T02:32:08.794Z,6.85
2023-03-11T02:34:38.012Z,5.70
2023-03-11T02:37:10.009Z,6.13
2023-03-11T02:39:39.881Z,5.88
2023-03-11T02:42:18.183Z,5.68
2023-03-11T02:44:50.377Z,5.07
2023-03-11T02:47:17.140Z,4.90
2023-03-11T02:49:44.135Z,5.50
2023-03-11T02:52:10.756Z,5.18
2023-03-11T02:54:37.328Z,6.10
2023-03-11T02:57:04.084Z,6.35
2023-03-11T02:59:30.738Z,6.13
2023-03-11T03:01:57.339Z,6.37
2023-03-11T03:04:24.221Z,7.25
2023-03-11T03:06:50.938Z,6.55
2023-03-11T03:09:17.579Z,7.20
2023-03-11T03:11:44.165Z,7.18
2023-03-11T03:14:10.702Z,6.77
2023-03-11T03:16:37.519Z,8.07
2023-03-11T03:19:04.427Z,7.82
2023-03-11T03:21:32.680Z,8.00
2023-03-11T03:24:02.161Z,7.82
2023-03-11T03:26:29.468Z,8.60
2023-03-11T03:28:56.014Z,6.50
2023-03-11T03:31:22.753Z,7.72
2023-03-11T03:33:49.377Z,9.45
2023-03-11T03:36:16.027Z,9.48
2023-03-11T03:38:42.654Z,8.60
2023-03-11T03:41:09.941Z,7.35
2023-03-11T03:43:36.613Z,8.82
2023-03-11T03:46:04.992Z,8.07
2023-03-11T03:48:31.861Z,6.50
2023-03-11T03:51:07.138Z,7.57
2023-03-11T03:53:35.270Z,7.85
2023-03-11T03:56:06.663Z,8.23
2023-03-11T03:58:33.684Z,7.78
2023-03-11T04:01:00.427Z,8.48
2023-03-11T04:03:28.101Z,8.03
2023-03-11T04:05:54.844Z,8.40
2023-03-11T04:08:21.352Z,10.13
2023-03-11T04:10:57.459Z,7.63
2023-03-11T04:13:24.080Z,7.10
2023-03-11T04:15:50.735Z,10.10
2023-03-11T04:18:17.476Z,7.78
2023-03-11T04:20:44.151Z,8.98
2023-03-11T04:23:10.974Z,8.40
2023-03-11T04:25:37.512Z,7.78
2023-03-11T04:28:04.218Z,7.63
2023-03-11T04:30:30.752Z,8.32
2023-03-11T04:32:57.429Z,8.68
2023-03-11T04:35:24.070Z,7.82
2023-03-11T04:37:50.813Z,7.47
2023-03-11T04:40:17.769Z,8.20
2023-03-11T04:42:44.346Z,9.40
2023-03-11T04:45:11.561Z,7.95
2023-03-11T04:47:38.132Z,7.90
2023-03-11T04:50:05.420Z,7.55
2023-03-11T04:52:32.032Z,7.63
2023-03-11T04:54:58.702Z,7.90
2023-03-11T04:57:25.208Z,8.77
2023-03-11T04:59:51.833Z,7.43
2023-03-11T05:02:18.492Z,8.48
2023-03-11T05:04:45.348Z,7.70
2023-03-11T05:07:11.973Z,7.50
2023-03-11T05:09:38.798Z,7.32
2023-03-11T05:12:05.866Z,7.93
2023-03-11T05:14:32.493Z,8.98
2023-03-11T05:16:59.046Z,7.67
2023-03-11T05:19:32.318Z,7.00
2023-03-11T05:21:59.084Z,7.60
2023-03-11T05:24:27.462Z,7.80
2023-03-11T05:26:54.160Z,7.45
2023-03-11T05:29:20.823Z,8.20
2023-03-11T05:31:47.994Z,8.23
2023-03-11T05:34:15.392Z,7.95
2023-03-11T05:36:42.029Z,7.78
2023-03-11T05:39:08.727Z,7.63
2023-03-11T05:41:35.302Z,8.23
2023-03-11T05:44:02.342Z,8.52
2023-03-11T05:46:28.900Z,9.05
2023-03-11T05:48:55.560Z,8.55
2023-03-11T05:51:22.150Z,8.90
2023-03-11T05:53:49.257Z,9.80
2023-03-11T05:56:17.584Z,9.00
2023-03-11T05:58:44.207Z,8.18
2023-03-11T06:01:12.687Z,8.63
2023-03-11T06:03:40.465Z,8.63
2023-03-11T06:06:09.513Z,7.93
2023-03-11T06:08:36.778Z,9.02
2023-03-11T06:11:04.801Z,9.68
2023-03-11T06:13:31.462Z,10.07
2023-03-11T06:15:58.163Z,10.68
2023-03-11T06:18:28.133Z,9.77
2023-03-11T06:20:58.601Z,9.70
2023-03-11T06:23:25.694Z,10.25
2023-03-11T06:26:14.119Z,10.50
2023-03-11T06:28:45.196Z,11.63
2023-03-11T06:31:19.382Z,9.43
2023-03-11T06:33:46.633Z,10.10
2023-03-11T06:36:15.301Z,10.15
2023-03-11T06:38:43.079Z,9.98
2023-03-11T06:41:10.320Z,8.68
2023-03-11T06:43:37.274Z,9.67
2023-03-11T06:46:12.160Z,9.82
2023-03-11T06:48:39.304Z,11.55
2023-03-11T06:51:06.084Z,9.57
2023-03-11T06:53:32.810Z,9.77
2023-03-11T06:56:11.510Z,9.83
2023-03-11T06:58:40.320Z,9.43
2023-03-11T07:01:12.370Z,9.30
2023-03-11T07:03:39.311Z,10.35
2023-03-11T07:06:06.761Z,9.82
2023-03-11T07:08:33.425Z,9.47
2023-03-11T07:11:29.364Z,10.18
2023-03-11T07:13:55.967Z,10.02
2023-03-11T07:16:25.600Z,10.77
2023-03-11T07:18:54.484Z,9.90
2023-03-11T07:21:23.006Z,11.33
2023-03-11T07:23:54.528Z,12.18
2023-03-11T07:26:22.131Z,11.82
2023-03-11T07:28:52.735Z,11.63
2023-03-11T07:31:24.933Z,9.85
2023-03-11T07:33:51.971Z,8.80
2023-03-11T07:36:21.149Z,9.40
2023-03-11T07:38:48.379Z,12.07
2023-03-11T07:41:16.226Z,10.73
2023-03-11T07:43:44.542Z,8.93
2023-03-11T07:46:16.462Z,10.10
2023-03-11T07:48:43.232Z,8.88
2023-03-11T07:51:12.365Z,8.75
2023-03-11T07:53:40.534Z,9.18
2023-03-11T07:56:10.107Z,7.88
2023-03-11T07:58:37.474Z,9.60
2023-03-11T08:01:12.761Z,10.10
2023-03-11T08:03:39.703Z,8.38
2023-03-11T08:06:20.872Z,8.05
2023-03-11T08:08:49.013Z,9.63
2023-03-11T08:11:16.837Z,8.50
2023-03-11T08:13:45.254Z,8.90
2023-03-11T08:16:16.104Z,8.68
2023-03-11T08:18:43.459Z,9.80
2023-03-11T08:21:13.762Z,9.57
2023-03-11T08:23:40.587Z,11.43
2023-03-11T08:26:09.710Z,7.80
2023-03-11T08:28:36.379Z,8.82
2023-03-11T08:31:03.602Z,9.15
2023-03-11T08:33:30.156Z,10.25
2023-03-11T08:35:56.941Z,10.43
2023-03-11T08:38:23.604Z,9.68
2023-03-11T08:40:50.246Z,9.85
2023-03-11T08:43:16.805Z,11.00
2023-03-11T08:45:43.796Z,10.68
2023-03-11T08:48:11.820Z,10.77
2023-03-11T08:50:53.409Z,9.57
2023-03-11T08:53:21.936Z,9.85
2023-03-11T08:55:50.255Z,10.23
2023-03-11T08:58:16.777Z,9.50
2023-03-11T09:00:43.402Z,8.57
2023-03-11T09:03:10.274Z,10.32
2023-03-11T09:05:37.100Z,11.48
2023-03-11T09:08:05.728Z,9.35
2023-03-11T09:10:32.618Z,9.95
2023-03-11T09:12:59.214Z,9.00
2023-03-11T09:15:25.793Z,9.95
2023-03-11T09:17:53.132Z,10.93
2023-03-11T09:20:20.190Z,13.13
2023-03-11T09:22:47.377Z,9.60
2023-03-11T09:25:14.413Z,10.37
2023-03-11T09:27:41.528Z,8.32
2023-03-11T09:30:10.044Z,9.30
2023-03-11T09:32:37.316Z,12.48
2023-03-11T09:35:05.162Z,9.57
2023-03-11T09:37:31.977Z,8.27
2023-03-11T09:39:58.560Z,8.05
2023-03-11T09:42:39.065Z,9.57
2023-03-11T09:45:11.694Z,10.93
2023-03-11T09:47:41.649Z,10.52
2023-03-11T09:50:16.499Z,10.83
2023-03-11T09:52:53.473Z,10.57
2023-03-11T09:55:42.189Z,8.23
2023-03-11T09:58:17.788Z,8.90
2023-03-11T10:00:45.106Z,9.13
2023-03-11T10:03:21.126Z,7.80
2023-03-11T10:05:48.473Z,7.40
2023-03-11T10:08:31.694Z,9.20
2023-03-11T10:11:14.819Z,9.02
2023-03-11T10:13:51.669Z,7.95
2023-03-11T10:16:32.814Z,10.17
2023-03-11T10:19:18.756Z,8.43
2023-03-11T10:22:05.636Z,10.25
2023-03-11T10:25:10.471Z,8.93
2023-03-11T10:27:54.275Z,9.15
2023-03-11T10:30:32.215Z,11.13
2023-03-11T10:33:51.545Z,10.18
2023-03-11T10:36:27.181Z,9.93
2023-03-11T10:38:55.390Z,10.85
2023-03-11T10:41:44.769Z,8.82
2023-03-11T10:44:20.317Z,10.83
2023-03-11T10:46:47.466Z,10.70
2023-03-11T10:49:16.206Z,10.57
2023-03-11T10:51:47.513Z,7.75
2023-03-11T10:54:30.820Z,9.90
2023-03-11T10:57:02.786Z,9.90
2023-03-11T10:59:37.499Z,12.88
2023-03-11T11:02:23.708Z,7.68
2023-03-11T11:05:03.014Z,8.60
2023-03-11T11:07:32.846Z,10.00
2023-03-11T11:10:21.042Z,10.27
2023-03-11T11:12:54.867Z,10.05
2023-03-11T11:15:23.592Z,10.57
2023-03-11T11:17:50.749Z,9.48
2023-03-11T11:20:19.736Z,10.93
2023-03-11T11:22:53.456Z,13.17
2023-03-11T11:25:42.695Z,11.25
2023-03-11T11:28:17.724Z,12.35
2023-03-11T11:31:06.371Z,11.98
2023-03-11T11:33:39.768Z,10.75
2023-03-11T11:36:15.019Z,11.73
2023-03-11T11:38:42.397Z,12.23
2023-03-11T11:41:14.916Z,12.43
2023-03-11T11:43:55.052Z,12.43
2023-03-11T11:46:25.089Z,10.95
2023-03-11T11:49:06.667Z,12.07
2023-03-11T11:51:41.970Z,13.25
2023-03-11T11:54:43.901Z,12.23
2023-03-11T11:57:13.487Z,12.23
2023-03-11T11:59:40.348Z,12.55
2023-03-11T12:02:28.568Z,14.70
2023-03-11T12:05:11.206Z,12.95
2023-03-11T12:07:56.580Z,13.98
2023-03-11T12:10:33.340Z,12.88
2023-03-11T12:13:21.215Z,12.98
2023-03-11T12:15:52.642Z,13.50
2023-03-11T12:18:25.344Z,12.48
2023-03-11T12:20:55.901Z,13.30
2023-03-11T12:23:44.927Z,13.95
2023-03-11T12:26:22.083Z,15.45
2023-03-11T12:29:04.680Z,14.33
2023-03-11T12:31:38.994Z,14.55
2023-03-11T12:34:11.566Z,12.98
2023-03-11T12:36:43.905Z,15.15
2023-03-11T12:39:43.049Z,15.02
2023-03-11T12:42:17.259Z,14.63
2023-03-11T12:44:45.074Z,12.75
2023-03-11T12:47:11.605Z,13.18
2023-03-11T12:49:44.042Z,14.13
2023-03-11T12:52:13.631Z,13.40
2023-03-11T12:55:03.864Z,12.47
2023-03-11T12:57:48.522Z,11.93
2023-03-11T13:00:23.050Z,11.65
2023-03-11T13:03:14.911Z,11.90
2023-03-11T13:05:54.137Z,12.43
2023-03-11T13:08:37.334Z,11.60
2023-03-11T13:11:36.153Z,11.55
2023-03-11T13:14:14.768Z,11.93
2023-03-11T13:16:41.936Z,12.07
2023-03-11T13:19:26.978Z,11.20
2023-03-11T13:21:55.140Z,9.90
2023-03-11T13:24:22.092Z,11.98
2023-03-11T13:26:50.802Z,11.13
2023-03-11T13:29:29.720Z,10.55
2023-03-11T13:32:05.470Z,10.70
2023-03-11T13:34:49.479Z,10.87
2023-03-11T13:37:29.544Z,9.63
2023-03-11T13:40:38.427Z,10.77
2023-03-11T13:43:16.700Z,10.48
2023-03-11T13:45:50.790Z,10.98
2023-03-11T13:48:24.843Z,9.23
2023-03-11T13:50:57.732Z,9.45
2023-03-11T13:53:34.533Z,8.73
2023-03-11T13:56:01.178Z,8.70
2023-03-11T13:58:28.866Z,7.70
2023-03-11T14:01:00.907Z,7.73
2023-03-11T14:03:36.562Z,7.22
2023-03-11T14:06:06.717Z,7.85
2023-03-11T14:08:43.110Z,8.82
2023-03-11T14:11:18.614Z,9.75
2023-03-11T14:13:46.419Z,8.27
2023-03-11T14:16:19.928Z,8.70
2023-03-11T14:19:08.697Z,9.20
2023-03-11T14:21:35.633Z,7.90
2023-03-11T14:24:03.250Z,8.65
2023-03-11T14:26:35.306Z,8.27
2023-03-11T14:29:08.834Z,7.65
2023-03-11T14:31:37.733Z,7.93
2023-03-11T14:34:10.146Z,9.05
2023-03-11T14:36:54.097Z,8.30
2023-03-11T14:39:29.543Z,8.80
2023-03-11T14:42:02.836Z,7.97
2023-03-11T14:44:32.963Z,9.77
2023-03-11T14:47:15.282Z,8.52
2023-03-11T14:49:42.369Z,8.52
2023-03-11T14:52:18.525Z,9.47
2023-03-11T14:54:46.013Z,8.45
2023-03-11T14:57:30.395Z,9.25
2023-03-11T14:59:57.660Z,9.23
2023-03-11T15:02:30.048Z,8.55
2023-03-11T15:04:59.435Z,8.13
2023-03-11T15:07:27.267Z,8.65
2023-03-11T15:09:54.151Z,9.70
2023-03-11T15:12:35.105Z,9.52
2023-03-11T15:15:01.695Z,8.73
2023-03-11T15:17:42.783Z,7.73
2023-03-11T15:20:32.144Z,8.15
2023-03-11T15:23:02.564Z,8.07
2023-03-11T15:25:33.318Z,8.40
2023-03-11T15:28:14.150Z,9.68
2023-03-11T15:30:40.778Z,7.87
2023-03-11T15:33:23.929Z,7.60
2023-03-11T15:35:50.957Z,9.25
2023-03-11T15:38:27.549Z,7.40
2023-03-11T15:41:00.994Z,7.65
2023-03-11T15:43:45.877Z,7.00
2023-03-11T15:46:12.487Z,6.97
2023-03-11T15:48:39.125Z,7.40
2023-03-11T15:51:05.814Z,6.60
2023-03-11T15:53:32.359Z,6.68
2023-03-11T15:56:07.431Z,8.07
2023-03-11T15:58:36.269Z,6.97
2023-03-11T16:01:04.032Z,7.30
2023-03-11T16:03:31.558Z,7.78
2023-03-11T16:05:58.342Z,8.93
2023-03-11T16:08:24.971Z,7.60
2023-03-11T16:10:51.517Z,7.32
2023-03-11T16:13:18.115Z,6.40
2023-03-11T16:15:46.841Z,8.30
2023-03-11T16:18:13.508Z,7.85
2023-03-11T16:20:46.048Z,7.80
2023-03-11T16:23:19.030Z,8.32
2023-03-11T16:25:47.178Z,8.18
2023-03-11T16:28:15.059Z,7.15
2023-03-11T16:30:41.925Z,6.70
2023-03-11T16:33:08.991Z,6.70
2023-03-11T16:35:36.186Z,10.02
2023-03-11T16:38:02.833Z,7.32
2023-03-11T16:40:29.449Z,7.72
2023-03-11T16:43:01.041Z,6.93
2023-03-11T16:45:27.920Z,6.87
2023-03-11T16:47:54.438Z,6.47
2023-03-11T16:50:23.518Z,7.93
2023-03-11T16:52:51.197Z,7.57
2023-03-11T16:55:17.744Z,8.18
2023-03-11T16:57:44.986Z,8.87
2023-03-11T17:00:14.712Z,8.88
2023-03-11T17:02:42.625Z,7.80
2023-03-11T17:05:10.042Z,8.73
2023-03-11T17:07:39.530Z,8.65
2023-03-11T17:10:07.789Z,7.40
2023-03-11T17:12:34.436Z,7.68
2023-03-11T17:15:01.081Z,9.63
2023-03-11T17:17:28.021Z,8.82
2023-03-11T17:19:54.507Z,7.80
2023-03-11T17:22:21.200Z,7.83
2023-03-11T17:24:48.002Z,7.55
2023-03-11T17:27:14.642Z,8.77
2023-03-11T17:29:41.176Z,8.82
2023-03-11T17:32:08.055Z,8.00
2023-03-11T17:34:34.692Z,9.37
2023-03-11T17:37:01.273Z,9.60
2023-03-11T17:39:27.870Z,11.07
2023-03-11T17:41:54.376Z,10.70
2023-03-11T17:44:21.112Z,13.27
2023-03-11T17:46:47.624Z,13.93
2023-03-11T17:49:14.738Z,12.30
2023-03-11T17:51:41.431Z,13.65
2023-03-11T17:54:07.913Z,10.23
2023-03-11T17:56:34.506Z,11.20
2023-03-11T17:59:01.122Z,16.03
2023-03-11T18:01:29.192Z,11.55
2023-03-11T18:03:55.872Z,13.15
2023-03-11T18:06:23.144Z,14.68
2023-03-11T18:08:50.540Z,13.27
2023-03-11T18:11:20.846Z,13.80
2023-03-11T18:13:47.661Z,14.65
2023-03-11T18:16:17.619Z,14.10
2023-03-11T18:18:45.074Z,13.95
2023-03-11T18:21:17.563Z,11.60
2023-03-11T18:23:44.784Z,13.30
2023-03-11T18:26:14.537Z,13.63
2023-03-11T18:28:41.704Z,10.95
2023-03-11T18:31:14.069Z,12.27
2023-03-11T18:33:42.484Z,10.32
2023-03-11T18:36:16.583Z,9.93
2023-03-11T18:38:43.842Z,10.73
2023-03-11T18:41:10.471Z,11.20
2023-03-11T18:43:37.542Z,9.82
2023-03-11T18:46:09.334Z,12.23
2023-03-11T18:48:36.264Z,10.43
2023-03-11T18:51:03.298Z,11.00
2023-03-11T18:53:29.933Z,15.65
2023-03-11T18:56:04.916Z,10.73
2023-03-11T18:58:31.464Z,11.10
2023-03-11T19:01:12.082Z,9.43
2023-03-11T19:03:39.253Z,12.50
2023-03-11T19:06:11.096Z,11.88
2023-03-11T19:08:37.991Z,12.90
2023-03-11T19:11:09.153Z,12.68
2023-03-11T19:13:46.544Z,10.47
2023-03-11T19:16:16.006Z,9.65
2023-03-11T19:18:42.541Z,8.80
2023-03-11T19:21:11.784Z,12.00
2023-03-11T19:23:38.383Z,8.32
2023-03-11T19:26:04.968Z,10.73
2023-03-11T19:28:31.512Z,9.50
2023-03-11T19:30:59.117Z,7.97
2023-03-11T19:33:26.263Z,9.75
2023-03-11T19:35:54.858Z,7.75
2023-03-11T19:38:22.982Z,8.53
2023-03-11T19:41:10.913Z,8.48
2023-03-11T19:43:37.813Z,9.95
2023-03-11T19:46:05.617Z,10.02
2023-03-11T19:48:32.702Z,10.55
2023-03-11T19:50:59.857Z,9.57
2023-03-11T19:53:27.239Z,11.02
2023-03-11T19:55:56.506Z,11.95
2023-03-11T19:58:24.689Z,8.13
2023-03-11T20:00:51.718Z,8.45
2023-03-11T20:03:19.060Z,3.90
2023-03-11T20:05:47.365Z,8.32
2023-03-11T20:08:16.744Z,10.10
2023-03-11T20:10:45.644Z,8.45
2023-03-11T20:13:12.806Z,5.97
2023-03-11T20:15:39.534Z,6.17
2023-03-11T20:18:06.961Z,7.63
2023-03-11T20:20:34.899Z,8.05
2023-03-11T20:23:02.053Z,8.23
2023-03-11T20:25:32.428Z,9.63
2023-03-11T20:28:00.756Z,6.70
2023-03-11T20:30:28.504Z,8.82
2023-03-11T20:32:55.201Z,5.85
2023-03-11T20:35:22.288Z,7.07
2023-03-11T20:37:49.279Z,6.32
2023-03-11T20:40:17.639Z,9.30
2023-03-11T20:42:46.853Z,7.20
2023-03-11T20:45:16.050Z,5.70
2023-03-11T20:47:44.283Z,7.07
2023-03-11T20:50:12.675Z,5.72
2023-03-11T20:52:39.900Z,9.70
2023-03-11T20:55:08.334Z,7.22
2023-03-11T20:57:36.416Z,7.55
2023-03-11T21:00:09.057Z,7.00
2023-03-11T21:02:35.790Z,8.00
2023-03-11T21:05:02.963Z,8.20
2023-03-11T21:07:29.563Z,7.60
2023-03-11T21:09:57.634Z,7.05
2023-03-11T21:12:24.679Z,5.70
2023-03-11T21:14:51.366Z,6.15
2023-03-11T21:17:17.982Z,7.17
2023-03-11T21:19:44.737Z,5.40
2023-03-11T21:22:11.395Z,6.32
2023-03-11T21:24:37.954Z,7.95
2023-03-11T21:27:04.573Z,6.25
2023-03-11T21:29:31.307Z,7.90
2023-03-11T21:31:58.135Z,5.45
2023-03-11T21:34:24.809Z,5.65
2023-03-11T21:36:51.316Z,6.65
2023-03-11T21:39:17.864Z,11.30
2023-03-11T21:41:44.424Z,7.87
2023-03-11T21:44:11.151Z,11.15
2023-03-11T21:46:37.966Z,10.68
2023-03-11T21:49:04.802Z,10.05
2023-03-11T21:51:31.413Z,9.23
2023-03-11T21:53:59.139Z,12.50
2023-03-11T21:56:25.963Z,8.32
2023-03-11T21:58:53.679Z,7.95
2023-03-11T22:01:20.695Z,6.72
2023-03-11T22:03:48.055Z,13.32
2023-03-11T22:06:15.542Z,6.23
2023-03-11T22:08:42.546Z,7.75
2023-03-11T22:11:17.454Z,8.57
2023-03-11T22:13:48.409Z,7.70
2023-03-11T22:16:15.617Z,7.65
2023-03-11T22:18:42.721Z,6.67
2023-03-11T22:21:10.856Z,10.05
2023-03-11T22:23:37.747Z,6.88
2023-03-11T22:26:04.529Z,6.57
2023-03-11T22:28:31.164Z,7.00
2023-03-11T22:30:57.731Z,7.43
2023-03-11T22:33:24.408Z,10.15
2023-03-11T22:35:54.138Z,14.85
2023-03-11T22:38:21.010Z,9.45
2023-03-11T22:40:47.604Z,5.95
2023-03-11T22:43:14.519Z,6.40
2023-03-11T22:45:41.112Z,6.18
2023-03-11T22:48:08.005Z,9.82
2023-03-11T22:50:34.877Z,7.70
2023-03-11T22:53:01.447Z,5.78
2023-03-11T22:55:27.973Z,5.00
2023-03-11T22:57:54.506Z,6.85
2023-03-11T23:00:22.428Z,7.95
2023-03-11T23:02:53.530Z,6.05
2023-03-11T23:05:20.124Z,5.50
2023-03-11T23:07:47.015Z,6.87
2023-03-11T23:10:14.680Z,6.60
2023-03-11T23:12:42.053Z,5.68
2023-03-11T23:15:12.436Z,10.00
2023-03-11T23:17:40.296Z,6.80
2023-03-11T23:20:10.561Z,5.47
2023-03-11T23:22:38.273Z,7.00
2023-03-11T23:25:06.737Z,9.40
2023-03-11T23:27:33.309Z,5.55
2023-03-11T23:29:59.870Z,6.30
2023-03-11T23:32:26.514Z,6.60
2023-03-11T23:34:53.136Z,5.72
2023-03-11T23:37:19.801Z,5.78
2023-03-11T23:39:46.360Z,7.10
2023-03-11T23:42:25.108Z,7.18
2023-03-11T23:44:53.327Z,8.23
2023-03-11T23:47:20.206Z,4.75
2023-03-11T23:49:46.740Z,6.05
2023-03-11T23:52:13.290Z,7.28
2023-03-11T23:54:39.814Z,4.22
2023-03-11T23:57:06.352Z,4.90
2023-03-11T23:59:32.849Z,4.30
